Strona główna
METAR-TAF:

METAR-TAF

Lotnisko :

Port lotniczy Kushiro

Kushiro, Japonia

Szerokość geograficzna: 43-02N, Długość geograficzna: 144-12E, wysokość: 95 m

Aktualna obserwacja pogody

Raport powstał 10 minut temu, godzina 07:00 UTC
Wiatr 5 kt od zachodnio-północny zachód
Temperatura 7°C
Wilgotność 45%
Ciśnienie 1019 hPa
Widzialność 10 km lub więcej
Mało chmury na wysokości 3000 ft

METAR: RJCK 150700Z 30005KT 9999 FEW030 07/M04 Q1019

czas: 16:10 (07:10 UTC)

Prognoza

Raport powstał 1 godzina i 55 minut temu, godzina 05:15 UTC
Prognoza ważna od 15 godzina 06 UTC do 16 godzina 12 UTC
Wiatr 7 kt od północ
Widzialność 10 km lub więcej
Mało chmury na wysokości 3000 ft
Stopniowe zmiany
od 15 godzina 15 UTC do 15 godzina 17 UTC
Wiatr 7 kt od południe

TAF: RJCK 150515Z 1506/1612 35007KT 9999 FEW030 BECMG 1515/1517 19007KT

Obserwacja i prognoza pogody dla ponad 4000 lotnisk (raport METAR i TAF).

Dostępne stacje oznaczono żółtymi i czerwonymi punktami na mapie.

Najedź kursorem aby zobaczyć nazwę stacji.

Kliknij aby zobaczyć obserwacje i prognozy pogody.

Aby zmienić mapę: kliknij na zielony przycisk z czarnym krzyżykiem, aby powiększyć; na zielony przycisk z myślnikiem, aby pomniejszyć; na zielone strzałki, aby przejść do map sąsiednich.


METAR-TAF: